sensor_id;sensor_type;location;lat;lon;timestamp;pressure;altitude;pressure_sealevel;temperature;humidity
77869;BME280;67231;59.144;37.934;2023-07-24T00:00:47;99106.28;;;15.08;72.98
77869;BME280;67231;59.144;37.934;2023-07-24T00:03:14;99099.28;;;15.00;73.76
77869;BME280;67231;59.144;37.934;2023-07-24T00:05:40;99096.00;;;14.91;73.86
77869;BME280;67231;59.144;37.934;2023-07-24T00:08:07;99100.69;;;14.83;73.50
77869;BME280;67231;59.144;37.934;2023-07-24T00:10:33;99111.38;;;14.76;73.92
77869;BME280;67231;59.144;37.934;2023-07-24T00:13:00;99103.31;;;14.63;74.76
77869;BME280;67231;59.144;37.934;2023-07-24T00:15:27;99106.56;;;14.51;75.16
77869;BME280;67231;59.144;37.934;2023-07-24T00:17:54;99111.81;;;14.38;76.08
77869;BME280;67231;59.144;37.934;2023-07-24T00:20:20;99100.72;;;14.28;76.22
77869;BME280;67231;59.144;37.934;2023-07-24T00:22:47;99092.69;;;14.21;76.70
77869;BME280;67231;59.144;37.934;2023-07-24T00:25:13;99106.00;;;14.14;76.84
77869;BME280;67231;59.144;37.934;2023-07-24T00:27:40;99111.31;;;14.08;76.92
77869;BME280;67231;59.144;37.934;2023-07-24T00:30:07;99109.22;;;14.03;77.45
77869;BME280;67231;59.144;37.934;2023-07-24T00:32:34;99114.50;;;13.96;77.97
77869;BME280;67231;59.144;37.934;2023-07-24T00:35:02;99116.13;;;13.91;77.73
77869;BME280;67231;59.144;37.934;2023-07-24T00:37:31;99117.72;;;13.85;77.76
77869;BME280;67231;59.144;37.934;2023-07-24T00:39:57;99109.28;;;13.81;77.75
77869;BME280;67231;59.144;37.934;2023-07-24T00:42:24;99112.34;;;13.78;77.93
77869;BME280;67231;59.144;37.934;2023-07-24T00:44:50;99106.56;;;13.75;78.04
77869;BME280;67231;59.144;37.934;2023-07-24T00:47:17;99111.50;;;13.71;77.71
77869;BME280;67231;59.144;37.934;2023-07-24T00:49:46;99116.59;;;13.66;77.99
77869;BME280;67231;59.144;37.934;2023-07-24T00:52:15;99113.66;;;13.61;78.00
77869;BME280;67231;59.144;37.934;2023-07-24T00:54:43;99103.38;;;13.58;77.93
77869;BME280;67231;59.144;37.934;2023-07-24T00:57:12;99110.75;;;13.56;78.05
77869;BME280;67231;59.144;37.934;2023-07-24T00:59:40;99104.19;;;13.52;78.08
77869;BME280;67231;59.144;37.934;2023-07-24T01:02:08;99098.19;;;13.50;77.92
77869;BME280;67231;59.144;37.934;2023-07-24T01:04:35;99104.75;;;13.47;77.86
77869;BME280;67231;59.144;37.934;2023-07-24T01:07:02;99102.28;;;13.45;77.97
77869;BME280;67231;59.144;37.934;2023-07-24T01:09:28;99100.63;;;13.44;77.93
77869;BME280;67231;59.144;37.934;2023-07-24T01:12:05;99102.66;;;13.42;78.28
77869;BME280;67231;59.144;37.934;2023-07-24T01:14:44;99101.19;;;13.40;78.27
77869;BME280;67231;59.144;37.934;2023-07-24T01:17:15;99101.41;;;13.38;78.34
77869;BME280;67231;59.144;37.934;2023-07-24T01:19:49;99100.59;;;13.38;78.51
77869;BME280;67231;59.144;37.934;2023-07-24T01:27:23;99103.16;;;13.31;78.42
77869;BME280;67231;59.144;37.934;2023-07-24T01:29:50;99103.00;;;13.33;78.79
77869;BME280;67231;59.144;37.934;2023-07-24T01:32:17;99106.09;;;13.36;78.14
77869;BME280;67231;59.144;37.934;2023-07-24T01:34:44;99104.06;;;13.38;78.20
77869;BME280;67231;59.144;37.934;2023-07-24T01:37:12;99106.53;;;13.40;78.18
77869;BME280;67231;59.144;37.934;2023-07-24T01:39:40;99109.84;;;13.42;78.11
77869;BME280;67231;59.144;37.934;2023-07-24T01:42:08;99116.22;;;13.47;78.05
77869;BME280;67231;59.144;37.934;2023-07-24T01:44:35;99109.69;;;13.50;77.78
77869;BME280;67231;59.144;37.934;2023-07-24T01:47:01;99115.84;;;13.51;77.88
77869;BME280;67231;59.144;37.934;2023-07-24T01:49:29;99111.78;;;13.55;78.37
77869;BME280;67231;59.144;37.934;2023-07-24T01:51:55;99111.00;;;13.61;77.67
77869;BME280;67231;59.144;37.934;2023-07-24T01:54:23;99103.69;;;13.70;77.46
77869;BME280;67231;59.144;37.934;2023-07-24T01:56:52;99115.66;;;13.80;76.87
77869;BME280;67231;59.144;37.934;2023-07-24T01:59:18;99116.91;;;13.84;77.06
77869;BME280;67231;59.144;37.934;2023-07-24T02:01:45;99112.84;;;13.89;76.80
77869;BME280;67231;59.144;37.934;2023-07-24T02:04:11;99110.06;;;14.10;76.21
77869;BME280;67231;59.144;37.934;2023-07-24T02:06:40;99109.91;;;14.67;74.83
77869;BME280;67231;59.144;37.934;2023-07-24T02:09:06;99115.75;;;15.44;72.47
77869;BME280;67231;59.144;37.934;2023-07-24T02:11:33;99117.56;;;15.90;70.91
77869;BME280;67231;59.144;37.934;2023-07-24T02:13:59;99119.88;;;16.38;69.21
77869;BME280;67231;59.144;37.934;2023-07-24T02:16:26;99115.78;;;16.81;68.45
77869;BME280;67231;59.144;37.934;2023-07-24T02:18:53;99128.47;;;16.99;67.76
77869;BME280;67231;59.144;37.934;2023-07-24T02:21:19;99123.38;;;17.23;67.01
77869;BME280;67231;59.144;37.934;2023-07-24T02:23:46;99117.19;;;17.47;66.19
77869;BME280;67231;59.144;37.934;2023-07-24T02:26:13;99124.19;;;17.74;65.48
77869;BME280;67231;59.144;37.934;2023-07-24T02:28:39;99128.84;;;18.04;64.31
77869;BME280;67231;59.144;37.934;2023-07-24T02:31:05;99121.31;;;18.49;63.40
77869;BME280;67231;59.144;37.934;2023-07-24T02:33:32;99111.09;;;18.70;62.95
77869;BME280;67231;59.144;37.934;2023-07-24T02:36:00;99116.53;;;18.33;63.40
77869;BME280;67231;59.144;37.934;2023-07-24T02:38:27;99123.25;;;17.36;66.03
77869;BME280;67231;59.144;37.934;2023-07-24T02:40:53;99110.09;;;16.64;68.39
77869;BME280;67231;59.144;37.934;2023-07-24T02:43:20;99122.47;;;16.13;69.76
77869;BME280;67231;59.144;37.934;2023-07-24T02:45:46;99114.47;;;15.93;70.53
77869;BME280;67231;59.144;37.934;2023-07-24T02:48:13;99127.47;;;15.83;70.68
77869;BME280;67231;59.144;37.934;2023-07-24T02:50:39;99134.25;;;15.79;71.37
77869;BME280;67231;59.144;37.934;2023-07-24T02:53:06;99132.84;;;15.76;71.31
77869;BME280;67231;59.144;37.934;2023-07-24T02:55:33;99132.59;;;15.71;71.41
77869;BME280;67231;59.144;37.934;2023-07-24T02:57:59;99124.38;;;15.59;71.40
77869;BME280;67231;59.144;37.934;2023-07-24T03:00:26;99133.03;;;15.48;72.00
77869;BME280;67231;59.144;37.934;2023-07-24T03:02:52;99137.78;;;15.39;71.67
77869;BME280;67231;59.144;37.934;2023-07-24T03:05:19;99130.97;;;15.37;72.19
77869;BME280;67231;59.144;37.934;2023-07-24T03:07:45;99134.06;;;15.34;71.94
77869;BME280;67231;59.144;37.934;2023-07-24T03:10:12;99142.88;;;15.41;72.08
77869;BME280;67231;59.144;37.934;2023-07-24T03:12:38;99134.88;;;15.41;71.49
77869;BME280;67231;59.144;37.934;2023-07-24T03:15:05;99144.94;;;15.39;71.77
77869;BME280;67231;59.144;37.934;2023-07-24T03:17:32;99148.47;;;15.39;71.77
77869;BME280;67231;59.144;37.934;2023-07-24T03:19:59;99144.13;;;15.45;71.86
77869;BME280;67231;59.144;37.934;2023-07-24T03:22:26;99145.38;;;15.49;71.67
77869;BME280;67231;59.144;37.934;2023-07-24T03:24:52;99146.59;;;15.53;71.78
77869;BME280;67231;59.144;37.934;2023-07-24T03:27:19;99135.50;;;15.50;71.44
77869;BME280;67231;59.144;37.934;2023-07-24T03:29:47;99136.31;;;15.50;72.05
77869;BME280;67231;59.144;37.934;2023-07-24T03:32:13;99120.69;;;15.47;71.72
77869;BME280;67231;59.144;37.934;2023-07-24T03:34:40;99129.53;;;15.47;71.70
77869;BME280;67231;59.144;37.934;2023-07-24T03:37:07;99132.63;;;15.58;71.86
77869;BME280;67231;59.144;37.934;2023-07-24T03:39:33;99139.81;;;15.57;71.78
77869;BME280;67231;59.144;37.934;2023-07-24T03:42:00;99125.19;;;15.66;71.12
77869;BME280;67231;59.144;37.934;2023-07-24T03:44:26;99120.47;;;15.75;71.02
77869;BME280;67231;59.144;37.934;2023-07-24T03:46:53;99125.22;;;15.80;71.35
77869;BME280;67231;59.144;37.934;2023-07-24T03:49:19;99127.06;;;15.86;71.05
77869;BME280;67231;59.144;37.934;2023-07-24T03:51:46;99117.78;;;16.02;70.76
77869;BME280;67231;59.144;37.934;2023-07-24T03:54:12;99115.69;;;16.11;70.18
77869;BME280;67231;59.144;37.934;2023-07-24T03:56:39;99123.28;;;16.14;70.61
77869;BME280;67231;59.144;37.934;2023-07-24T03:59:06;99119.78;;;16.20;70.61
77869;BME280;67231;59.144;37.934;2023-07-24T04:01:32;99113.97;;;16.30;70.30
77869;BME280;67231;59.144;37.934;2023-07-24T04:03:59;99115.16;;;16.34;70.03
77869;BME280;67231;59.144;37.934;2023-07-24T04:06:25;99116.63;;;16.36;70.10
77869;BME280;67231;59.144;37.934;2023-07-24T04:08:52;99114.97;;;16.42;69.95
77869;BME280;67231;59.144;37.934;2023-07-24T04:11:18;99115.56;;;16.44;69.57
77869;BME280;67231;59.144;37.934;2023-07-24T04:13:45;99111.66;;;16.40;70.30
77869;BME280;67231;59.144;37.934;2023-07-24T04:16:11;99111.81;;;16.52;69.83
77869;BME280;67231;59.144;37.934;2023-07-24T04:18:38;99124.38;;;16.58;69.49
77869;BME280;67231;59.144;37.934;2023-07-24T04:21:04;99115.47;;;16.57;69.73
77869;BME280;67231;59.144;37.934;2023-07-24T04:23:31;99106.81;;;16.62;69.31
77869;BME280;67231;59.144;37.934;2023-07-24T04:25:57;99110.47;;;16.74;68.98
77869;BME280;67231;59.144;37.934;2023-07-24T04:28:24;99117.03;;;16.79;69.03
77869;BME280;67231;59.144;37.934;2023-07-24T04:30:50;99116.25;;;16.71;69.45
77869;BME280;67231;59.144;37.934;2023-07-24T04:33:17;99111.31;;;16.68;69.72
77869;BME280;67231;59.144;37.934;2023-07-24T04:35:47;99112.31;;;16.74;69.64
77869;BME280;67231;59.144;37.934;2023-07-24T04:38:14;99114.53;;;16.84;69.59
77869;BME280;67231;59.144;37.934;2023-07-24T04:40:43;99112.06;;;16.89;69.16
77869;BME280;67231;59.144;37.934;2023-07-24T04:43:11;99107.91;;;16.93;69.25
77869;BME280;67231;59.144;37.934;2023-07-24T04:45:38;99105.47;;;17.17;69.05
77869;BME280;67231;59.144;37.934;2023-07-24T04:48:05;99114.19;;;17.37;68.55
77869;BME280;67231;59.144;37.934;2023-07-24T04:50:31;99112.25;;;17.70;67.72
77869;BME280;67231;59.144;37.934;2023-07-24T04:52:58;99106.72;;;18.27;66.95
77869;BME280;67231;59.144;37.934;2023-07-24T04:55:25;99102.16;;;20.25;62.13
77869;BME280;67231;59.144;37.934;2023-07-24T04:57:52;99110.44;;;22.11;58.43
77869;BME280;67231;59.144;37.934;2023-07-24T05:00:18;99113.41;;;22.76;56.81
77869;BME280;67231;59.144;37.934;2023-07-24T05:02:45;99111.78;;;22.09;57.59
77869;BME280;67231;59.144;37.934;2023-07-24T05:05:11;99100.69;;;21.20;59.08
77869;BME280;67231;59.144;37.934;2023-07-24T05:07:38;99110.22;;;20.77;59.62
77869;BME280;67231;59.144;37.934;2023-07-24T05:10:05;99106.69;;;20.36;60.41
77869;BME280;67231;59.144;37.934;2023-07-24T05:12:32;99099.34;;;20.60;60.05
77869;BME280;67231;59.144;37.934;2023-07-24T05:14:58;99097.91;;;20.98;58.83
77869;BME280;67231;59.144;37.934;2023-07-24T05:17:25;99107.81;;;21.09;58.84
77869;BME280;67231;59.144;37.934;2023-07-24T05:19:51;99110.53;;;21.60;57.42
77869;BME280;67231;59.144;37.934;2023-07-24T05:22:18;99104.13;;;21.83;56.76
77869;BME280;67231;59.144;37.934;2023-07-24T05:24:44;99109.31;;;22.07;56.67
77869;BME280;67231;59.144;37.934;2023-07-24T05:27:11;99100.72;;;22.10;57.04
77869;BME280;67231;59.144;37.934;2023-07-24T05:29:38;99094.75;;;22.52;56.15
77869;BME280;67231;59.144;37.934;2023-07-24T05:32:05;99088.13;;;22.92;55.01
77869;BME280;67231;59.144;37.934;2023-07-24T05:34:32;99091.75;;;23.36;54.09
77869;BME280;67231;59.144;37.934;2023-07-24T05:36:58;99089.63;;;23.80;52.71
77869;BME280;67231;59.144;37.934;2023-07-24T05:39:25;99098.28;;;23.82;52.70
77869;BME280;67231;59.144;37.934;2023-07-24T05:41:51;99096.16;;;23.85;52.86
77869;BME280;67231;59.144;37.934;2023-07-24T05:44:18;99099.59;;;23.75;52.37
77869;BME280;67231;59.144;37.934;2023-07-24T05:46:44;99101.53;;;24.27;51.99
77869;BME280;67231;59.144;37.934;2023-07-24T05:49:10;99104.94;;;24.81;50.67
77869;BME280;67231;59.144;37.934;2023-07-24T05:51:37;99105.00;;;25.58;49.74
77869;BME280;67231;59.144;37.934;2023-07-24T05:54:04;99099.03;;;25.56;49.89
77869;BME280;67231;59.144;37.934;2023-07-24T05:56:30;99104.19;;;25.52;49.72
77869;BME280;67231;59.144;37.934;2023-07-24T05:58:57;99100.41;;;25.27;49.93
77869;BME280;67231;59.144;37.934;2023-07-24T06:01:23;99101.19;;;25.13;50.91
77869;BME280;67231;59.144;37.934;2023-07-24T06:03:50;99108.81;;;25.41;49.63
77869;BME280;67231;59.144;37.934;2023-07-24T06:06:16;99106.03;;;25.88;49.19
77869;BME280;67231;59.144;37.934;2023-07-24T06:08:42;99100.34;;;26.54;47.79
77869;BME280;67231;59.144;37.934;2023-07-24T06:11:09;99101.25;;;26.34;47.92
77869;BME280;67231;59.144;37.934;2023-07-24T06:13:36;99104.66;;;26.61;47.11
77869;BME280;67231;59.144;37.934;2023-07-24T06:16:03;99102.16;;;28.26;45.11
77869;BME280;67231;59.144;37.934;2023-07-24T06:18:29;99094.19;;;28.92;43.75
77869;BME280;67231;59.144;37.934;2023-07-24T06:20:56;99107.06;;;30.68;42.28
77869;BME280;67231;59.144;37.934;2023-07-24T06:23:22;99125.03;;;31.65;39.81
77869;BME280;67231;59.144;37.934;2023-07-24T06:25:49;99117.91;;;31.55;39.08
77869;BME280;67231;59.144;37.934;2023-07-24T06:28:17;99120.06;;;30.35;40.07
77869;BME280;67231;59.144;37.934;2023-07-24T06:30:44;99120.59;;;29.49;41.41
77869;BME280;67231;59.144;37.934;2023-07-24T06:33:14;99122.66;;;29.24;41.94
77869;BME280;67231;59.144;37.934;2023-07-24T06:35:40;99117.69;;;30.20;40.23
77869;BME280;67231;59.144;37.934;2023-07-24T06:38:07;99133.56;;;31.10;39.68
77869;BME280;67231;59.144;37.934;2023-07-24T06:40:34;99126.75;;;31.84;38.61
77869;BME280;67231;59.144;37.934;2023-07-24T06:43:01;99118.22;;;31.85;39.06
77869;BME280;67231;59.144;37.934;2023-07-24T06:45:27;99128.03;;;33.28;36.55
77869;BME280;67231;59.144;37.934;2023-07-24T06:47:54;99130.84;;;34.22;35.26
77869;BME280;67231;59.144;37.934;2023-07-24T06:50:20;99137.06;;;33.46;35.40
77869;BME280;67231;59.144;37.934;2023-07-24T06:52:47;99126.09;;;33.02;36.72
77869;BME280;67231;59.144;37.934;2023-07-24T06:55:16;99124.75;;;30.99;37.55
77869;BME280;67231;59.144;37.934;2023-07-24T06:57:43;99118.88;;;29.86;39.34
77869;BME280;67231;59.144;37.934;2023-07-24T07:00:10;99111.78;;;29.85;39.63
77869;BME280;67231;59.144;37.934;2023-07-24T07:02:38;99115.63;;;30.25;39.36
77869;BME280;67231;59.144;37.934;2023-07-24T07:05:05;99113.03;;;31.30;37.31
77869;BME280;67231;59.144;37.934;2023-07-24T07:07:32;99118.84;;;31.05;37.62
77869;BME280;67231;59.144;37.934;2023-07-24T07:09:58;99108.63;;;30.19;39.06
77869;BME280;67231;59.144;37.934;2023-07-24T07:12:25;99108.66;;;28.74;40.28
77869;BME280;67231;59.144;37.934;2023-07-24T07:14:52;99109.50;;;26.79;43.47
77869;BME280;67231;59.144;37.934;2023-07-24T07:17:18;99100.09;;;25.24;45.54
77869;BME280;67231;59.144;37.934;2023-07-24T07:19:45;99103.06;;;24.08;47.65
77869;BME280;67231;59.144;37.934;2023-07-24T07:22:12;99101.97;;;25.70;46.01
77869;BME280;67231;59.144;37.934;2023-07-24T07:24:38;99094.84;;;28.22;41.62
77869;BME280;67231;59.144;37.934;2023-07-24T07:27:05;99100.34;;;29.83;39.64
77869;BME280;67231;59.144;37.934;2023-07-24T07:29:32;99111.81;;;30.77;38.06
77869;BME280;67231;59.144;37.934;2023-07-24T07:31:58;99101.88;;;28.71;40.25
77869;BME280;67231;59.144;37.934;2023-07-24T07:34:25;99103.44;;;26.87;42.47
77869;BME280;67231;59.144;37.934;2023-07-24T07:36:51;99093.59;;;25.56;44.64
77869;BME280;67231;59.144;37.934;2023-07-24T07:39:18;99086.69;;;24.55;46.34
77869;BME280;67231;59.144;37.934;2023-07-24T07:41:44;99089.88;;;23.79;48.26
77869;BME280;67231;59.144;37.934;2023-07-24T07:44:11;99078.94;;;25.16;46.39
77869;BME280;67231;59.144;37.934;2023-07-24T07:46:38;99087.81;;;27.03;43.98
77869;BME280;67231;59.144;37.934;2023-07-24T07:49:04;99077.66;;;29.35;40.73
77869;BME280;67231;59.144;37.934;2023-07-24T07:51:30;99078.75;;;28.82;41.14
77869;BME280;67231;59.144;37.934;2023-07-24T07:53:57;99089.38;;;28.03;40.93
77869;BME280;67231;59.144;37.934;2023-07-24T07:56:23;99081.03;;;27.35;41.86
77869;BME280;67231;59.144;37.934;2023-07-24T07:58:50;99083.16;;;26.69;42.72
77869;BME280;67231;59.144;37.934;2023-07-24T08:01:16;99083.16;;;25.94;43.81
77869;BME280;67231;59.144;37.934;2023-07-24T08:03:43;99078.47;;;26.25;44.26
77869;BME280;67231;59.144;37.934;2023-07-24T08:06:09;99078.69;;;28.06;41.41
77869;BME280;67231;59.144;37.934;2023-07-24T08:08:36;99070.88;;;27.70;40.51
77869;BME280;67231;59.144;37.934;2023-07-24T08:11:06;99077.53;;;26.50;41.12
77869;BME280;67231;59.144;37.934;2023-07-24T08:13:33;99072.44;;;25.32;43.12
77869;BME280;67231;59.144;37.934;2023-07-24T08:16:00;99074.03;;;25.18;44.17
77869;BME280;67231;59.144;37.934;2023-07-24T08:18:30;99065.09;;;25.12;44.09
77869;BME280;67231;59.144;37.934;2023-07-24T08:20:57;99074.28;;;25.68;44.17
77869;BME280;67231;59.144;37.934;2023-07-24T08:23:23;99063.72;;;24.89;44.73
77869;BME280;67231;59.144;37.934;2023-07-24T08:25:54;99069.72;;;24.07;46.24
77869;BME280;67231;59.144;37.934;2023-07-24T08:28:21;99072.91;;;23.51;47.50
77869;BME280;67231;59.144;37.934;2023-07-24T08:31:00;99065.63;;;23.19;48.19
77869;BME280;67231;59.144;37.934;2023-07-24T08:33:29;99061.00;;;24.89;46.70
77869;BME280;67231;59.144;37.934;2023-07-24T08:36:07;99070.97;;;25.76;44.92
77869;BME280;67231;59.144;37.934;2023-07-24T08:38:35;99062.09;;;25.50;45.01
77869;BME280;67231;59.144;37.934;2023-07-24T08:41:06;99066.16;;;25.47;45.07
77869;BME280;67231;59.144;37.934;2023-07-24T08:43:34;99065.31;;;25.57;44.93
77869;BME280;67231;59.144;37.934;2023-07-24T08:46:02;99062.63;;;25.21;46.58
77869;BME280;67231;59.144;37.934;2023-07-24T08:48:33;99056.63;;;25.65;45.62
77869;BME280;67231;59.144;37.934;2023-07-24T08:51:07;99054.94;;;25.85;44.62
77869;BME280;67231;59.144;37.934;2023-07-24T08:53:36;99059.88;;;25.57;42.84
77869;BME280;67231;59.144;37.934;2023-07-24T08:56:04;99065.59;;;25.24;46.96
77869;BME280;67231;59.144;37.934;2023-07-24T08:58:32;99061.00;;;24.84;49.10
77869;BME280;67231;59.144;37.934;2023-07-24T09:01:00;99065.16;;;24.18;50.80
77869;BME280;67231;59.144;37.934;2023-07-24T09:03:27;99083.75;;;23.56;51.08
77869;BME280;67231;59.144;37.934;2023-07-24T09:05:54;99065.97;;;22.68;50.96
77869;BME280;67231;59.144;37.934;2023-07-24T09:08:36;99065.72;;;21.08;53.92
77869;BME280;67231;59.144;37.934;2023-07-24T09:11:04;99064.69;;;20.23;57.16
77869;BME280;67231;59.144;37.934;2023-07-24T09:13:31;99062.69;;;19.78;57.89
77869;BME280;67231;59.144;37.934;2023-07-24T09:15:58;99069.47;;;19.57;58.14
77869;BME280;67231;59.144;37.934;2023-07-24T09:18:38;99063.03;;;19.34;58.91
77869;BME280;67231;59.144;37.934;2023-07-24T09:21:05;99063.25;;;19.33;59.43
77869;BME280;67231;59.144;37.934;2023-07-24T09:23:32;99075.06;;;19.55;59.76
77869;BME280;67231;59.144;37.934;2023-07-24T09:25:58;99070.78;;;20.18;59.65
77869;BME280;67231;59.144;37.934;2023-07-24T09:28:25;99057.56;;;20.46;56.68
77869;BME280;67231;59.144;37.934;2023-07-24T09:30:56;99054.22;;;20.67;56.32
77869;BME280;67231;59.144;37.934;2023-07-24T09:33:34;99048.44;;;20.76;56.02
77869;BME280;67231;59.144;37.934;2023-07-24T09:36:02;99049.19;;;20.88;55.54
77869;BME280;67231;59.144;37.934;2023-07-24T09:38:30;99058.34;;;21.04;55.73
77869;BME280;67231;59.144;37.934;2023-07-24T09:40:57;99048.16;;;21.06;56.32
77869;BME280;67231;59.144;37.934;2023-07-24T09:43:27;99044.13;;;21.08;56.66
77869;BME280;67231;59.144;37.934;2023-07-24T09:45:55;99046.69;;;20.98;57.21
77869;BME280;67231;59.144;37.934;2023-07-24T09:48:26;99035.13;;;20.86;57.42
77869;BME280;67231;59.144;37.934;2023-07-24T09:50:57;99031.03;;;20.83;57.94
77869;BME280;67231;59.144;37.934;2023-07-24T09:53:43;99034.09;;;20.87;57.39
77869;BME280;67231;59.144;37.934;2023-07-24T09:56:10;99037.44;;;20.94;57.05
77869;BME280;67231;59.144;37.934;2023-07-24T09:58:38;99032.03;;;20.94;57.25
77869;BME280;67231;59.144;37.934;2023-07-24T10:01:07;99032.34;;;20.98;57.38
77869;BME280;67231;59.144;37.934;2023-07-24T10:03:37;99036.44;;;21.00;58.35
77869;BME280;67231;59.144;37.934;2023-07-24T10:06:05;99030.31;;;20.88;58.62
77869;BME280;67231;59.144;37.934;2023-07-24T10:08:31;99030.78;;;20.39;58.76
77869;BME280;67231;59.144;37.934;2023-07-24T10:10:58;99046.25;;;19.68;60.21
77869;BME280;67231;59.144;37.934;2023-07-24T10:13:26;99043.69;;;18.71;63.59
77869;BME280;67231;59.144;37.934;2023-07-24T10:15:53;99049.88;;;18.11;63.98
77869;BME280;67231;59.144;37.934;2023-07-24T10:18:26;99047.03;;;18.25;64.28
77869;BME280;67231;59.144;37.934;2023-07-24T10:21:07;99058.19;;;19.01;63.09
77869;BME280;67231;59.144;37.934;2023-07-24T10:23:41;99064.41;;;19.96;62.11
77869;BME280;67231;59.144;37.934;2023-07-24T10:26:08;99059.56;;;20.96;60.43
77869;BME280;67231;59.144;37.934;2023-07-24T10:28:46;99058.34;;;21.38;59.25
77869;BME280;67231;59.144;37.934;2023-07-24T10:31:20;99066.19;;;21.95;58.56
77869;BME280;67231;59.144;37.934;2023-07-24T10:33:47;99059.03;;;22.50;57.44
77869;BME280;67231;59.144;37.934;2023-07-24T10:36:18;99063.72;;;22.33;56.78
77869;BME280;67231;59.144;37.934;2023-07-24T10:38:47;99054.78;;;22.10;55.61
77869;BME280;67231;59.144;37.934;2023-07-24T10:41:13;99059.09;;;21.67;54.70
77869;BME280;67231;59.144;37.934;2023-07-24T10:43:42;99062.44;;;21.40;54.39
77869;BME280;67231;59.144;37.934;2023-07-24T10:46:10;99055.72;;;21.60;54.04
77869;BME280;67231;59.144;37.934;2023-07-24T10:48:37;99043.34;;;22.03;52.70
77869;BME280;67231;59.144;37.934;2023-07-24T10:51:08;99040.63;;;22.25;50.86
77869;BME280;67231;59.144;37.934;2023-07-24T10:53:36;99046.84;;;22.26;50.52
77869;BME280;67231;59.144;37.934;2023-07-24T10:56:07;99042.22;;;22.26;50.42
77869;BME280;67231;59.144;37.934;2023-07-24T10:58:33;99040.00;;;22.40;49.88
77869;BME280;67231;59.144;37.934;2023-07-24T11:01:05;99032.00;;;22.50;50.56
77869;BME280;67231;59.144;37.934;2023-07-24T11:03:35;99034.72;;;22.50;51.00
77869;BME280;67231;59.144;37.934;2023-07-24T11:06:03;99037.19;;;22.30;52.28
77869;BME280;67231;59.144;37.934;2023-07-24T11:08:30;99031.59;;;22.36;51.77
77869;BME280;67231;59.144;37.934;2023-07-24T11:13:26;99033.16;;;22.10;52.24
77869;BME280;67231;59.144;37.934;2023-07-24T11:15:53;99032.06;;;21.89;52.60
77869;BME280;67231;59.144;37.934;2023-07-24T11:18:21;99019.34;;;21.85;52.59
77869;BME280;67231;59.144;37.934;2023-07-24T11:20:54;99033.22;;;21.93;53.01
77869;BME280;67231;59.144;37.934;2023-07-24T11:23:22;99026.75;;;21.72;53.03
77869;BME280;67231;59.144;37.934;2023-07-24T11:25:51;99020.06;;;21.58;53.31
77869;BME280;67231;59.144;37.934;2023-07-24T11:28:19;99027.28;;;21.52;53.19
77869;BME280;67231;59.144;37.934;2023-07-24T11:30:46;99014.91;;;21.39;52.88
77869;BME280;67231;59.144;37.934;2023-07-24T11:33:15;99016.31;;;21.25;53.51
77869;BME280;67231;59.144;37.934;2023-07-24T11:35:42;99014.38;;;20.86;53.45
77869;BME280;67231;59.144;37.934;2023-07-24T11:38:10;99001.63;;;20.82;54.22
77869;BME280;67231;59.144;37.934;2023-07-24T11:40:41;99015.69;;;21.01;53.96
77869;BME280;67231;59.144;37.934;2023-07-24T11:43:19;99004.16;;;21.05;53.71
77869;BME280;67231;59.144;37.934;2023-07-24T11:45:47;99008.09;;;21.15;52.68
77869;BME280;67231;59.144;37.934;2023-07-24T11:48:19;99008.16;;;21.20;53.45
77869;BME280;67231;59.144;37.934;2023-07-24T11:50:48;99019.75;;;21.37;52.83
77869;BME280;67231;59.144;37.934;2023-07-24T11:53:26;99000.13;;;21.42;53.63
77869;BME280;67231;59.144;37.934;2023-07-24T11:55:55;98998.97;;;21.55;52.96
77869;BME280;67231;59.144;37.934;2023-07-24T11:58:26;99008.13;;;21.54;53.04
77869;BME280;67231;59.144;37.934;2023-07-24T12:00:53;98998.97;;;21.55;53.21
77869;BME280;67231;59.144;37.934;2023-07-24T12:03:21;98995.84;;;21.46;53.25
77869;BME280;67231;59.144;37.934;2023-07-24T12:05:48;98995.91;;;21.12;53.62
77869;BME280;67231;59.144;37.934;2023-07-24T12:08:17;98990.69;;;20.88;54.00
77869;BME280;67231;59.144;37.934;2023-07-24T12:10:45;98991.75;;;20.87;54.38
77869;BME280;67231;59.144;37.934;2023-07-24T12:13:12;98978.59;;;21.08;54.54
77869;BME280;67231;59.144;37.934;2023-07-24T12:15:38;98974.16;;;21.19;53.86
77869;BME280;67231;59.144;37.934;2023-07-24T12:18:06;98970.88;;;21.17;54.13
77869;BME280;67231;59.144;37.934;2023-07-24T12:20:33;98970.25;;;20.92;54.72
77869;BME280;67231;59.144;37.934;2023-07-24T12:23:01;98962.31;;;20.86;54.52
77869;BME280;67231;59.144;37.934;2023-07-24T12:25:27;98962.66;;;20.89;55.19
77869;BME280;67231;59.144;37.934;2023-07-24T12:27:54;98966.97;;;21.07;55.06
77869;BME280;67231;59.144;37.934;2023-07-24T12:30:20;98973.50;;;21.12;54.62
77869;BME280;67231;59.144;37.934;2023-07-24T12:32:47;98964.63;;;20.94;55.70
77869;BME280;67231;59.144;37.934;2023-07-24T12:35:15;98958.66;;;20.92;55.24
77869;BME280;67231;59.144;37.934;2023-07-24T12:37:41;98961.34;;;20.92;55.07
77869;BME280;67231;59.144;37.934;2023-07-24T12:40:09;98961.41;;;20.80;55.53
77869;BME280;67231;59.144;37.934;2023-07-24T12:42:36;98944.44;;;20.80;55.85
77869;BME280;67231;59.144;37.934;2023-07-24T12:45:03;98947.69;;;20.99;55.25
77869;BME280;67231;59.144;37.934;2023-07-24T12:47:33;98936.16;;;21.03;54.69
77869;BME280;67231;59.144;37.934;2023-07-24T12:50:00;98946.06;;;20.98;55.16
77869;BME280;67231;59.144;37.934;2023-07-24T12:52:31;98937.63;;;20.94;55.66
77869;BME280;67231;59.144;37.934;2023-07-24T12:54:57;98946.22;;;20.91;55.10
77869;BME280;67231;59.144;37.934;2023-07-24T12:57:24;98946.06;;;20.81;55.06
77869;BME280;67231;59.144;37.934;2023-07-24T12:59:52;98949.81;;;20.80;55.23